Latest Weather Observations for Weipa

IDQ60801

Issued at 8:32 am EST Friday 30 January 2015 (issued every 30 minutes, with the page automatically refreshed every 10 minutes)

About weather observations | Map of weather stations | Latest weather observations for QLD | Other Formats
Station Details ID: 027045 Name: WEIPA AERO Lat: -12.68 Lon: 141.92 Height: 17.96 m
Data from the previous 72 hours. | See also: Recent months at Weipa
Date/Time
EST
Temp
°C
App
Temp
°C
Dew
Point
Rel
Hum
%
Delta-T
°C
Wind Press
QNH
hPa
Press
MSL
hPa
Rain
since 9 am
mm
Dir
 
Spd
km/h
Gust
km/h
Spd
kts
Gust
kts
30/08:30am 28.0 32.3 25.5 86 1.8 NNW 13 19 7 10 1007.5 - 0.0
30/08:00am 26.9 32.0 24.9 89 1.4 NNW 7 9 4 5 1007.2 - 0.0
30/07:30am 25.5 30.3 24.5 94 0.7 N 7 9 4 5 1006.9 - 0.0
30/07:00am 24.5 29.6 24.1 98 0.3 N 4 4 2 2 1006.6 - 0.0
30/06:30am 24.3 29.8 24.0 98 0.2 N 2 4 1 2 1006.1 - 0.0
30/05:30am 24.4 29.5 24.1 98 0.2 N 4 4 2 2 1005.5 - 0.0
30/05:00am 24.6 29.5 24.3 98 0.2 N 6 6 3 3 1005.4 - 0.0
30/04:30am 24.6 29.5 24.3 98 0.2 N 6 7 3 4 1005.3 - 0.0
30/04:00am 24.5 30.1 24.3 99 0.1 N 2 2 1 1 1005.6 - 0.0
30/03:30am 24.8 30.9 24.4 98 0.3 CALM 0 0 0 0 1005.8 - 0.0
30/03:00am 24.8 30.4 24.3 97 0.3 NW 2 4 1 2 1005.9 1005.7 0.0
30/02:30am 24.9 30.2 24.4 97 0.3 N 4 6 2 3 1006.0 - 0.0
30/02:00am 25.0 31.1 24.4 96 0.4 CALM 0 4 0 2 1006.0 - 0.0
30/01:30am 25.1 30.5 24.5 96 0.4 N 4 6 2 3 1006.4 - 0.0
30/01:00am 25.2 30.1 24.4 95 0.6 N 6 7 3 4 1006.8 - 0.0
30/12:30am 25.2 30.6 24.5 96 0.5 N 4 6 2 3 1007.0 - 0.0
30/12:00am 25.1 30.2 24.6 97 0.3 N 6 7 3 4 1007.2 1007.0 0.0
 
Date/Time
EST
Temp
°C
App
Temp
°C
Dew
Point
Rel
Hum
%
Delta-T
°C
Wind Press
QNH
hPa
Press
MSL
hPa
Rain
since 9 am
mm
Dir
 
Spd
km/h
Gust
km/h
Spd
kts
Gust
kts
29/11:30pm 25.2 30.7 24.6 96 0.4 N 4 4 2 2 1007.1 - 0.0
29/11:00pm 25.3 31.1 24.6 96 0.5 NE 2 4 1 2 1007.2 - 0.0
29/10:30pm 25.3 31.1 24.6 96 0.5 N 2 4 1 2 1007.2 - 0.0
29/10:00pm 25.3 30.8 24.6 96 0.5 N 4 6 2 3 1006.9 - 0.0
29/09:30pm 25.6 31.0 24.5 94 0.8 N 4 7 2 4 1006.6 - 0.0
29/09:00pm 25.8 31.1 24.4 92 1.0 N 4 6 2 3 1006.4 1006.2 0.0
29/08:30pm 26.0 31.1 24.7 92 0.9 NNW 6 6 3 3 1006.2 - 0.0
29/08:00pm 26.3 31.8 24.6 90 1.2 NNW 4 6 2 3 1006.0 - 0.0
29/07:30pm 26.7 31.8 24.7 89 1.4 NNW 6 7 3 4 1005.7 - 0.0
29/07:00pm 27.0 32.1 24.6 87 1.7 NW 6 9 3 5 1005.0 - 0.0
29/06:30pm 27.4 32.2 24.1 82 2.3 WNW 6 9 3 5 1004.5 - 0.0
29/06:00pm 27.5 32.2 24.0 81 2.4 WNW 6 7 3 4 1004.3 1004.1 0.0
29/05:30pm 27.5 32.0 23.6 79 2.7 W 6 9 3 5 1004.1 - 0.0
29/05:00pm 27.6 32.1 23.6 79 2.7 WSW 6 11 3 6 1003.5 - 0.0
29/04:30pm 27.6 32.3 24.0 81 2.5 S 6 7 3 4 1003.3 - 0.0
29/04:00pm 27.4 31.6 23.2 78 2.9 SW 6 11 3 6 1003.4 - 0.0
29/03:30pm 27.3 31.9 23.8 81 2.4 W 6 11 3 6 1003.5 - 0.0
29/03:00pm 27.1 31.3 23.5 81 2.5 W 7 13 4 7 1004.0 1003.8 0.0
29/02:30pm 27.0 30.9 23.6 81 2.3 WSW 9 15 5 8 1004.0 - 0.0
29/02:00pm 27.0 30.6 23.1 79 2.7 W 9 13 5 7 1004.1 - 0.0
29/01:30pm 26.9 30.0 22.9 79 2.7 WNW 11 17 6 9 1004.8 - 0.0
29/01:00pm 26.8 30.6 23.4 81 2.3 N 9 15 5 8 1005.4 - 0.0
29/12:30pm 26.8 30.2 23.3 81 2.4 NNW 11 17 6 9 1005.9 - 0.0
29/12:00pm 26.4 29.7 23.8 85 1.8 N 13 19 7 10 1006.4 1006.2 0.0
29/11:30am 26.4 29.1 24.2 88 1.5 NNW 17 24 9 13 1007.0 - 0.0
29/11:00am 26.2 28.7 23.8 87 1.6 N 17 24 9 13 1007.2 - 0.0
29/10:30am 25.9 29.1 23.7 88 1.5 NNW 13 20 7 11 1007.2 - 0.0
29/10:00am 25.1 28.5 23.3 90 1.2 N 11 19 6 10 1007.0 - 0.0
29/09:30am 24.9 27.8 23.2 90 1.2 N 13 20 7 11 1007.1 - 0.0
29/09:00am 24.7 28.3 23.0 90 1.2 N 9 17 5 9 1006.8 1006.6 11.2
29/08:30am 24.5 27.7 23.1 92 0.9 N 11 17 6 9 1006.5 - 11.2
29/08:00am 24.3 28.2 23.0 92 0.9 NNE 7 11 4 6 1005.8 - 11.2
29/07:30am 24.2 28.3 23.0 93 0.8 NNE 6 9 3 5 1005.4 - 11.2
29/07:00am 23.9 27.9 23.1 95 0.5 NNE 7 11 4 6 1004.9 - 11.2
29/06:30am 23.7 28.7 23.2 97 0.3 N 2 4 1 2 1004.5 - 11.2
29/06:00am 23.7 27.9 23.2 97 0.3 NNE 6 9 3 5 1004.3 1004.1 11.2
29/05:30am 23.7 27.9 23.1 96 0.4 N 6 7 3 4 1004.1 - 10.8
29/05:00am 23.9 28.0 23.2 96 0.5 N 7 13 4 7 1004.0 - 10.6
29/04:30am 24.2 28.0 23.4 95 0.5 NNW 9 13 5 7 1004.0 - 10.6
29/04:00am 24.7 28.4 23.9 95 0.5 N 11 15 6 8 1003.7 - 10.4
29/03:30am 24.8 30.1 24.3 97 0.3 NE 4 6 2 3 1003.7 - 10.4
29/03:00am 24.8 29.6 24.2 96 0.4 NE 6 6 3 3 1003.8 1003.6 10.4
29/02:30am 25.1 30.0 24.3 95 0.6 N 6 11 3 6 1004.1 - 10.4
29/02:00am 25.1 30.7 24.8 98 0.2 NE 4 6 2 3 1004.3 - 10.0
29/01:30am 25.2 31.2 24.8 98 0.3 E 2 4 1 2 1004.5 - 9.8
29/01:00am 25.2 30.2 24.8 98 0.3 N 7 9 4 5 1004.9 - 9.8
29/12:30am 25.1 30.7 24.8 98 0.2 N 4 6 2 3 1005.1 - 9.8
29/12:00am 25.1 31.0 24.7 98 0.3 N 2 4 1 2 1005.5 1005.3 9.8
 
Date/Time
EST
Temp
°C
App
Temp
°C
Dew
Point
Rel
Hum
%
Delta-T
°C
Wind Press
QNH
hPa
Press
MSL
hPa
Rain
since 9 am
mm
Dir
 
Spd
km/h
Gust
km/h
Spd
kts
Gust
kts
28/11:30pm 25.2 31.1 24.7 97 0.3 E 2 2 1 1 1005.6 - 9.8
28/11:00pm 25.2 31.5 24.7 97 0.3 CALM 0 0 0 0 1005.7 - 9.8
28/10:46pm 25.2 30.7 24.6 96 0.4 N 4 6 2 3 1005.5 - 9.6
28/10:32pm 25.3 30.6 24.4 95 0.6 NW 4 6 2 3 1005.4 - 9.4
28/10:30pm 25.3 30.7 24.5 95 0.6 NW 4 6 2 3 1005.5 - 9.2
28/10:00pm 25.3 31.1 24.5 95 0.6 WNW 2 4 1 2 1005.4 - 8.4
28/09:30pm 24.9 30.5 24.3 96 0.4 WSW 2 6 1 3 1005.5 - 8.2
28/09:00pm 25.0 31.0 24.3 96 0.5 CALM 0 0 0 0 1005.4 1005.2 8.0
28/08:30pm 25.1 30.1 23.9 93 0.8 WNW 4 6 2 3 1004.8 - 7.8
28/08:00pm 25.3 30.0 23.9 92 1.0 NNW 6 9 3 5 1004.6 - 7.8
28/07:30pm 25.9 29.8 24.3 91 1.1 NNW 11 19 6 10 1004.4 - 7.8
28/07:00pm 26.1 31.2 24.7 92 1.0 N 6 6 3 3 1004.2 - 7.8
28/06:30pm 26.3 31.9 24.3 89 1.4 N 2 4 1 2 1003.9 - 7.8
28/06:00pm 26.4 32.0 24.3 88 1.5 N 2 4 1 2 1003.7 1003.5 7.8
28/05:30pm 26.2 31.9 24.4 90 1.2 SW 2 6 1 3 1003.3 - 7.8
28/05:00pm 26.3 31.2 24.4 89 1.3 WNW 6 9 3 5 1003.2 - 7.8
28/04:35pm 26.3 31.3 24.5 90 1.2 WNW 6 11 3 6 1002.8 - 7.8
28/04:30pm 26.3 31.2 24.3 89 1.4 WNW 6 9 3 5 1002.6 - 7.8
28/04:17pm 26.2 31.1 24.3 89 1.3 WNW 6 11 3 6 1002.5 - 7.8
28/04:00pm 26.2 31.2 24.8 92 1.0 NW 7 13 4 7 1002.2 - 7.8
28/03:30pm 26.0 30.9 24.6 92 1.0 NNW 7 11 4 6 1002.1 - 7.8
28/03:00pm 25.8 29.8 24.4 92 1.0 NNW 11 17 6 9 1002.9 1002.7 7.8
28/02:30pm 25.9 30.2 24.9 94 0.7 NW 11 15 6 8 1003.6 - 7.6
28/02:00pm 25.7 28.6 24.5 93 0.8 NNW 17 24 9 13 1003.7 - 7.6
28/01:30pm 25.9 30.3 24.5 92 1.0 NW 9 15 5 8 1003.6 - 7.4
28/01:00pm 25.7 30.6 24.6 94 0.8 NW 7 13 4 7 1004.0 - 7.4
28/12:30pm 25.1 30.0 24.4 96 0.5 N 6 11 3 6 1004.5 - 7.4
28/12:00pm 24.7 29.4 24.0 96 0.5 N 6 7 3 4 1004.9 1004.7 7.4
28/11:30am 24.3 28.6 23.7 96 0.4 NW 7 11 4 6 1005.7 - 7.4
28/11:00am 27.1 30.6 24.9 88 1.5 N 15 24 8 13 1005.6 - 0.2
28/10:30am 27.1 31.8 24.9 88 1.5 N 9 13 5 7 1005.8 - 0.2
28/10:00am 26.6 32.2 25.4 93 0.8 NNE 6 7 3 4 1005.5 - 0.2
28/09:30am 26.6 31.9 24.9 90 1.2 NW 6 9 3 5 1005.8 - 0.2
28/09:00am 26.9 32.0 24.7 88 1.5 NW 6 9 3 5 1005.5 1005.3 11.6
28/08:30am 26.6 31.4 24.4 88 1.5 WNW 7 11 4 6 1005.5 - 11.6
28/08:00am 26.5 31.5 24.8 90 1.2 NW 7 11 4 6 1005.0 - 11.6
28/07:30am 25.9 28.9 24.0 89 1.3 NW 15 22 8 12 1004.8 - 11.6
28/07:00am 25.2 30.2 24.5 96 0.5 NNW 6 7 3 4 1004.0 - 11.6
28/06:30am 24.9 29.9 24.5 98 0.3 NNW 6 9 3 5 1004.0 - 11.6
28/06:00am 24.5 30.0 24.0 97 0.3 WNW 2 6 1 3 1003.4 1003.2 11.6
28/05:31am 24.7 30.5 24.0 96 0.5 CALM 0 2 0 1 1003.3 - 11.6
28/05:30am 24.7 30.5 24.0 96 0.5 CALM 0 2 0 1 1003.3 - 11.6
28/05:12am 24.6 30.1 24.0 96 0.4 WSW 2 4 1 2 1003.3 - 11.2
28/05:00am 24.7 30.3 24.2 97 0.3 NW 2 4 1 2 1003.4 - 11.0
28/04:52am 24.7 30.3 24.2 97 0.3 NW 2 6 1 3 1003.4 - 11.0
28/04:43am 24.6 30.2 24.2 98 0.3 WNW 2 6 1 3 1003.4 - 10.8
28/04:31am 24.4 29.9 24.0 98 0.3 SSE 2 4 1 2 1003.3 - 10.6
28/04:30am 24.4 29.9 24.0 98 0.3 SSE 2 4 1 2 1003.3 - 10.6
28/04:21am 24.5 30.0 24.0 97 0.3 SSE 2 6 1 3 1003.5 - 7.6
28/04:07am 24.4 29.1 23.9 97 0.3 SSE 6 11 3 6 1003.1 - 7.0
28/04:06am 24.4 29.1 23.9 97 0.3 SSE 6 11 3 6 1003.1 - 7.0
28/04:00am 24.5 29.0 23.9 96 0.4 SSE 7 19 4 10 1003.4 - 7.0
28/03:39am 24.3 27.4 23.5 95 0.5 SSE 13 20 7 11 1003.5 - 5.6
28/03:30am 24.7 27.7 23.4 92 0.9 SSE 13 22 7 12 1003.5 - 4.6
28/03:26am 24.9 28.0 23.6 92 0.9 S 13 22 7 12 1003.5 - 4.6
28/03:00am 26.4 32.7 25.4 94 0.7 NNW 2 4 1 2 1003.1 1002.9 4.6
28/02:30am 26.4 31.9 25.3 94 0.8 N 6 7 3 4 1003.5 - 4.6
28/02:00am 26.5 32.0 25.3 93 0.8 NNW 6 7 3 4 1003.8 - 4.6
28/01:30am 26.4 31.9 25.3 94 0.8 NNW 6 7 3 4 1004.3 - 4.6
28/01:00am 26.4 32.0 25.4 94 0.7 N 6 9 3 5 1004.6 - 4.6
28/12:30am 26.2 32.3 25.6 96 0.4 N 4 6 2 3 1005.4 - 4.6
28/12:00am 26.4 32.9 25.7 96 0.5 N 2 4 1 2 1005.2 1005.0 4.6
 
Date/Time
EST
Temp
°C
App
Temp
°C
Dew
Point
Rel
Hum
%
Delta-T
°C
Wind Press
QNH
hPa
Press
MSL
hPa
Rain
since 9 am
mm
Dir
 
Spd
km/h
Gust
km/h
Spd
kts
Gust
kts
27/11:30pm 26.6 32.8 25.8 95 0.6 NNW 4 7 2 4 1005.4 - 4.6
27/11:00pm 26.6 32.4 25.7 95 0.6 N 6 9 3 5 1005.1 - 4.6
27/10:30pm 26.8 33.4 25.8 94 0.7 NNE 2 6 1 3 1005.1 - 4.6
27/10:00pm 27.1 33.3 25.8 93 0.9 N 4 7 2 4 1005.1 - 4.6
27/09:30pm 27.3 32.9 25.7 91 1.1 N 7 9 4 5 1005.1 - 4.6
27/09:00pm 28.1 33.2 25.6 86 1.8 WNW 9 17 5 9 1005.0 1004.8 4.6
27/08:30pm 27.7 33.8 25.6 88 1.5 NW 4 6 2 3 1004.6 - 4.6
27/08:00pm 27.6 33.4 25.2 87 1.7 WNW 4 6 2 3 1004.4 - 4.6
27/07:30pm 28.0 34.0 24.8 83 2.2 W 2 7 1 4 1004.0 - 4.6
27/07:00pm 28.2 33.4 24.8 82 2.4 W 6 11 3 6 1003.9 - 4.6
27/06:30pm 28.4 33.3 25.2 83 2.2 W 9 15 5 8 1003.2 - 4.6
27/06:00pm 28.6 32.9 24.9 80 2.6 WNW 11 20 6 11 1002.9 1002.7 4.6
27/05:30pm 29.0 33.0 25.1 79 2.7 WNW 13 24 7 13 1002.7 - 4.6
27/05:00pm 29.4 32.6 24.9 77 3.2 WNW 17 28 9 15 1002.6 - 4.6
27/04:30pm 30.0 33.4 25.3 76 3.3 W 17 28 9 15 1002.6 - 4.6
27/04:00pm 29.9 32.8 25.1 75 3.4 W 19 32 10 17 1002.9 - 4.6
27/03:30pm 30.2 33.3 24.8 73 3.8 W 17 28 9 15 1003.0 - 4.6
27/03:00pm 30.1 34.1 25.6 77 3.2 W 15 30 8 16 1003.3 1003.1 4.6
27/02:30pm 29.8 33.0 25.0 75 3.4 W 17 26 9 14 1003.7 - 4.6
27/02:00pm 29.7 33.1 25.2 77 3.2 WNW 17 30 9 16 1003.9 - 4.6
27/01:30pm 29.1 31.9 25.0 78 2.9 WNW 19 30 10 16 1004.0 - 4.4
27/01:00pm 28.9 32.9 25.1 80 2.7 WNW 13 24 7 13 1004.6 - 4.4
27/12:30pm 28.3 31.6 25.1 83 2.2 NW 17 28 9 15 1005.1 - 4.4
27/12:00pm 28.2 32.4 25.4 85 2.0 WNW 13 26 7 14 1005.6 1005.4 4.4
27/11:30am 27.9 32.6 26.1 90 1.3 NW 13 22 7 12 1006.2 - 4.4
27/11:00am 27.1 33.1 26.3 95 0.6 N 7 11 4 6 1006.2 - 4.4
27/10:30am 26.4 31.8 25.4 94 0.7 NW 7 20 4 11 1006.7 - 4.4
27/10:16am 25.2 27.9 24.2 94 0.7 W 17 24 9 13 1006.9 - 3.6
27/10:00am 27.4 32.0 26.0 92 1.0 NNW 13 19 7 10 1006.9 - 0.0
27/09:30am 26.4 31.8 25.2 93 0.8 NNW 6 9 3 5 1007.2 - 0.0
27/09:00am 25.5 30.3 24.1 92 1.0 NNW 6 9 3 5 1006.9 1006.7 39.4

Other Formats:

Comma delimited format used in spreadsheet applications
http://www.bom.gov.au/fwo/IDQ60801/IDQ60801.94170.axf

JavaScript Object Notation format (JSON) in row-major order
http://www.bom.gov.au/fwo/IDQ60801/IDQ60801.94170.json